Du har inga inställningar för hoppväder.nu

Hoppväder.nu

Senast uppdaterat 13:13

UTC-tid

2021-12-07 kl. 12:13


Sol och måne

Solen går upp 8:30 och går ner 15:22 (beräknade cirkatider)
Nästa fullmåne blir om 12 dagar (2021-12-19)

METAR

ESMX (Växjö)
(23 minuter sedan)
ESMX 071150Z 08004KT 030V120 9999 BKN026 M04/M07 Q1014=



ESMT (Halmstad)
(23 minuter sedan)
ESMT 071150Z 10009KT 9999 BKN036 M02/M05 Q1013=



ESGJ (Jönköping)
(23 minuter sedan)
ESGJ 071150Z 11002KT 9999 BKN043 M06/M08 Q1014=



ESMK (Everöd)
(23 minuter sedan)
ESMK 071150Z 14008KT 9999 BKN033 01/M05 Q1014=






TAF

ESMX (Växjö)
(43 minuter sedan)
ESMX 071130Z 0712/0717 12005KT 9999 OVC030 PROB40 0713/0717 2500 -SN=



ESMT (Halmstad)
(72 minuter sedan)
ESMT 071101Z 0712/0720 13008KT 9999 BKN030=



ESGJ (Jönköping)
(43 minuter sedan)
ESGJ 071130Z 0712/0716 15005KT 9999 BKN045=



ESMK (Everöd)
(72 minuter sedan)
ESMK 071101Z 0712/0718 16008KT 9999 BKN020=





Kodnycklar till TAF och METAR






LHP

(Feringe är område se22g i Delområde 2)







Spotting

Hur fungerar spotthjälpen och Vindkartan?

Markvind är ca 0 m/s.



Vindkartan

Senast uppdaterad 13:13




All data kommer från LFV.se